Time;durP1;ratioP1;P1;durP2;ratioP2;P2;SDS_P1;SDS_P2;PMS_P1;PMS_P2;Temp;Humidity;BMP_temperature;BMP_pressure;BME280_temperature;BME280_humidity;BME280_pressure;Samples;Min_cycle;Max_cycle;Signal;HPM_P1;HPM_P2
2022/12/20 00:02:23;;;;;;;7.10;4.10;;;9.10;99.90;;;;;;4959530;28;20471;-88
2022/12/20 00:04:48;;;;;;;8.48;3.60;;;9.00;99.90;;;;;;4959592;28;20561;-88
2022/12/20 00:07:15;;;;;;;7.60;3.65;;;9.00;99.90;;;;;;4958701;28;20122;-88
2022/12/20 00:09:41;;;;;;;8.48;3.55;;;9.10;99.90;;;;;;4959457;28;20478;-88
2022/12/20 00:12:09;;;;;;;7.53;3.55;;;9.00;99.90;;;;;;4959388;28;20122;-88
2022/12/20 00:14:35;;;;;;;6.97;3.70;;;9.10;99.90;;;;;;4975109;28;20050;-89
2022/12/20 00:17:01;;;;;;;7.55;3.53;;;9.10;99.90;;;;;;4975986;28;20045;-87
2022/12/20 00:19:26;;;;;;;8.48;3.70;;;9.00;99.90;;;;;;4958842;28;20142;-87
2022/12/20 00:21:55;;;;;;;5.68;3.05;;;9.00;99.90;;;;;;4975741;28;20071;-88
2022/12/20 00:24:21;;;;;;;7.40;3.80;;;9.00;99.90;;;;;;4958756;28;20038;-88
2022/12/20 00:26:46;;;;;;;8.48;3.55;;;9.00;99.90;;;;;;4976252;28;20043;-88
2022/12/20 00:29:15;;;;;;;7.75;3.53;;;9.10;99.90;;;;;;4975019;28;20039;-88
2022/12/20 00:32:09;;;;;;;8.30;3.40;;;9.10;99.90;;;;;;4976032;28;20039;-88
2022/12/20 00:34:35;;;;;;;6.28;3.33;;;9.00;99.90;;;;;;4956457;28;20090;-88
2022/12/20 00:37:01;;;;;;;7.88;3.63;;;9.00;99.90;;;;;;4976261;28;20089;-88
2022/12/20 00:39:32;;;;;;;7.80;3.30;;;9.10;99.90;;;;;;4958624;28;20133;-88
2022/12/20 00:41:58;;;;;;;6.32;3.40;;;9.10;99.90;;;;;;4958903;28;20431;-88
2022/12/20 00:44:36;;;;;;;6.75;3.40;;;9.10;99.90;;;;;;4975861;28;20130;-88
2022/12/20 00:47:10;;;;;;;6.38;3.00;;;9.10;99.90;;;;;;4958606;28;20090;-87
2022/12/20 00:49:36;;;;;;;6.18;3.50;;;9.10;99.90;;;;;;4957992;28;20480;-88
2022/12/20 00:52:01;;;;;;;7.90;3.83;;;9.10;99.90;;;;;;4960528;28;20078;-87
2022/12/20 00:54:27;;;;;;;8.95;3.40;;;9.20;99.90;;;;;;4977351;28;20089;-88
2022/12/20 00:56:53;;;;;;;9.05;3.42;;;9.10;99.90;;;;;;4957865;28;20039;-88
2022/12/20 00:59:19;;;;;;;7.78;3.58;;;9.20;99.90;;;;;;4957948;28;20383;-87
2022/12/20 01:01:54;;;;;;;8.02;3.20;;;9.10;99.90;;;;;;4957917;28;20050;-87
2022/12/20 01:04:20;;;;;;;6.63;3.20;;;9.10;99.90;;;;;;4957273;28;20384;-89
2022/12/20 01:06:45;;;;;;;6.68;3.20;;;9.10;99.90;;;;;;4974358;28;20053;-87
2022/12/20 01:09:26;;;;;;;7.85;3.22;;;9.10;99.90;;;;;;4957981;28;20043;-87
2022/12/20 01:11:52;;;;;;;7.15;3.05;;;9.10;99.90;;;;;;4974852;28;20043;-88
2022/12/20 01:14:18;;;;;;;6.65;3.13;;;9.20;99.90;;;;;;4957613;28;20046;-88
2022/12/20 01:16:45;;;;;;;6.40;3.13;;;9.20;99.90;;;;;;4975116;28;20038;-88
2022/12/20 01:19:13;;;;;;;5.38;2.72;;;9.20;99.90;;;;;;4974368;28;20122;-88
2022/12/20 01:21:43;;;;;;;9.20;3.05;;;9.30;99.90;;;;;;4958265;28;20102;-88
2022/12/20 01:24:10;;;;;;;7.72;3.58;;;9.20;99.90;;;;;;4957177;28;20042;-89
2022/12/20 01:26:35;;;;;;;6.32;3.17;;;9.20;99.90;;;;;;4974971;28;20046;-88
2022/12/20 01:29:02;;;;;;;8.98;3.38;;;9.20;99.90;;;;;;4957787;28;20038;-89
2022/12/20 01:31:29;;;;;;;8.35;3.10;;;9.30;99.90;;;;;;4957064;28;20514;-88
2022/12/20 01:33:55;;;;;;;6.03;3.10;;;9.30;99.90;;;;;;4975455;28;20122;-89
2022/12/20 01:36:33;;;;;;;6.53;3.38;;;9.30;99.90;;;;;;4957981;28;20479;-89
2022/12/20 01:39:23;;;;;;;6.63;3.20;;;9.30;99.90;;;;;;4957036;28;20047;-88
2022/12/20 01:41:57;;;;;;;6.65;2.67;;;9.30;99.90;;;;;;4957692;28;20039;-88
2022/12/20 01:44:23;;;;;;;5.65;2.90;;;9.30;99.90;;;;;;4974498;28;20055;-89
2022/12/20 01:46:49;;;;;;;7.30;3.17;;;9.30;99.90;;;;;;4974770;28;20043;-88
2022/12/20 01:49:31;;;;;;;6.10;3.05;;;9.30;99.90;;;;;;4957434;28;20043;-88
2022/12/20 01:52:02;;;;;;;6.40;2.88;;;9.30;99.90;;;;;;4973243;28;20073;-87
2022/12/20 01:55:30;;;;;;;5.70;2.83;;;9.30;99.90;;;;;;4956806;28;20380;-88
2022/12/20 01:58:03;;;;;;;6.45;2.80;;;9.30;99.90;;;;;;4941436;28;20451;-88
2022/12/20 02:00:29;;;;;;;;;;;9.20;99.90;;;;;;4974154;28;20090;-90
2022/12/20 02:03:05;;;;;;;7.47;3.20;;;9.20;99.90;;;;;;4955917;28;19917;-89
2022/12/20 02:05:41;;;;;;;6.45;2.97;;;9.30;99.90;;;;;;4957355;28;20043;-87
2022/12/20 02:08:09;;;;;;;6.88;3.00;;;9.30;99.90;;;;;;4956452;28;20057;-88
2022/12/20 02:10:50;;;;;;;6.88;3.00;;;9.40;99.90;;;;;;4973466;28;20038;-88
2022/12/20 02:13:58;;;;;;;8.27;3.03;;;9.30;99.90;;;;;;4972152;28;20540;-88
2022/12/20 02:16:28;;;;;;;5.50;2.65;;;9.30;99.90;;;;;;4955096;28;20053;-88
2022/12/20 02:19:18;;;;;;;6.78;2.83;;;9.30;99.90;;;;;;4959015;28;20059;-88
2022/12/20 02:22:01;;;;;;;5.75;2.90;;;9.30;99.90;;;;;;4953172;28;20043;-89
2022/12/20 02:25:07;;;;;;;4.82;2.70;;;9.30;99.90;;;;;;4956375;28;20082;-89
2022/12/20 02:27:55;;;;;;;6.67;2.77;;;9.30;99.90;;;;;;4971435;28;20051;-89
2022/12/20 02:30:22;;;;;;;7.70;2.88;;;9.30;99.90;;;;;;4973545;28;20034;-89
2022/12/20 02:33:05;;;;;;;7.00;3.03;;;9.40;99.90;;;;;;4973260;28;20061;-89
2022/12/20 02:35:36;;;;;;;7.40;3.15;;;9.40;99.90;;;;;;4972909;28;20047;-89
2022/12/20 02:38:23;;;;;;;6.30;2.88;;;9.40;99.90;;;;;;4972029;28;20551;-88
2022/12/20 02:40:53;;;;;;;5.15;2.63;;;9.40;99.90;;;;;;4955881;28;20043;-90
2022/12/20 02:47:12;;;;;;;6.47;2.58;;;9.40;99.90;;;;;;4959005;28;20506;-89
2022/12/20 02:49:52;;;;;;;6.78;2.72;;;9.50;99.90;;;;;;4974928;28;20414;-89
2022/12/20 02:52:25;;;;;;;6.80;2.90;;;9.40;99.90;;;;;;4960149;28;20043;-89
2022/12/20 02:54:54;;;;;;;8.05;3.10;;;9.40;99.90;;;;;;4951664;28;20110;-89
2022/12/20 03:00:47;;;;;;;8.90;3.17;;;9.40;99.90;;;;;;4938126;28;20069;-89
2022/12/20 03:06:04;;;;;;;8.00;3.10;;;9.40;99.90;;;;;;4956985;28;20141;-90
2022/12/20 03:08:30;;;;;;;7.88;3.30;;;9.40;99.90;;;;;;4968856;28;20050;-90
2022/12/20 03:10:56;;;;;;;7.35;3.05;;;9.40;99.90;;;;;;4955364;28;20051;-88
2022/12/20 03:13:23;;;;;;;8.82;3.13;;;9.50;99.90;;;;;;4955370;28;20047;-88
2022/12/20 03:15:48;;;;;;;8.50;3.40;;;9.50;99.90;;;;;;4955451;28;20705;-87
2022/12/20 03:18:14;;;;;;;5.65;3.22;;;9.40;99.90;;;;;;4953606;28;20134;-88
2022/12/20 03:20:40;;;;;;;7.82;3.15;;;9.50;99.90;;;;;;4956083;28;20462;-89
2022/12/20 03:23:06;;;;;;;8.38;3.15;;;9.40;99.90;;;;;;4973894;28;20043;-89
2022/12/20 03:25:34;;;;;;;8.82;3.22;;;9.50;99.90;;;;;;4972620;28;20046;-88
2022/12/20 03:28:00;;;;;;;8.10;3.50;;;9.40;99.90;;;;;;4956493;28;20085;-88
2022/12/20 03:30:29;;;;;;;7.85;2.97;;;9.50;99.90;;;;;;4955269;28;20082;-88
2022/12/20 03:32:58;;;;;;;9.40;3.35;;;9.40;99.90;;;;;;4955932;28;20039;-89
2022/12/20 03:35:24;;;;;;;7.32;3.33;;;9.50;99.90;;;;;;4956186;28;20138;-88
2022/12/20 03:37:49;;;;;;;7.75;3.05;;;9.40;99.90;;;;;;4955529;28;20125;-88
2022/12/20 03:40:15;;;;;;;8.73;3.00;;;9.40;99.90;;;;;;4955634;28;20094;-88
2022/12/20 03:42:41;;;;;;;8.52;3.72;;;9.40;99.90;;;;;;4955900;28;20079;-88
2022/12/20 03:45:10;;;;;;;7.35;3.08;;;9.40;99.90;;;;;;4971797;28;20102;-89
2022/12/20 03:47:35;;;;;;;9.20;3.40;;;9.40;99.90;;;;;;4954070;28;20406;-88
2022/12/20 03:50:01;;;;;;;6.68;3.25;;;9.40;99.90;;;;;;4957415;28;20046;-88
2022/12/20 03:52:27;;;;;;;7.22;3.47;;;9.40;99.90;;;;;;4958736;28;20054;-89
2022/12/20 03:54:53;;;;;;;7.10;3.00;;;9.50;99.90;;;;;;4959532;28;20050;-88
2022/12/20 03:57:21;;;;;;;6.65;3.10;;;9.50;99.90;;;;;;4959179;28;20070;-90
2022/12/20 03:59:47;;;;;;;9.45;3.53;;;9.40;99.90;;;;;;4958959;28;20110;-89
2022/12/20 04:02:14;;;;;;;6.47;3.30;;;9.40;99.90;;;;;;4959232;28;20038;-88
2022/12/20 04:04:40;;;;;;;6.68;3.15;;;9.40;99.90;;;;;;4959680;28;20046;-89
2022/12/20 04:07:06;;;;;;;9.18;3.80;;;9.40;99.90;;;;;;4958677;28;20063;-89
2022/12/20 04:09:35;;;;;;;5.63;3.20;;;9.40;99.90;;;;;;4976539;28;20035;-89
2022/12/20 04:12:10;;;;;;;7.03;3.45;;;9.40;99.90;;;;;;4959143;28;20039;-88
2022/12/20 04:14:36;;;;;;;7.05;3.60;;;9.40;99.90;;;;;;4975729;28;20042;-89
2022/12/20 04:17:02;;;;;;;8.13;3.00;;;9.40;99.90;;;;;;4958609;28;20046;-89
2022/12/20 04:19:37;;;;;;;7.90;3.72;;;9.40;99.90;;;;;;4975899;28;20467;-88
2022/12/20 04:22:23;;;;;;;7.20;3.67;;;9.50;99.90;;;;;;4958921;28;20081;-88
2022/12/20 04:24:50;;;;;;;6.90;3.30;;;9.50;99.90;;;;;;4943116;28;20509;-88
2022/12/20 04:27:50;;;;;;;8.63;3.42;;;9.40;99.90;;;;;;4958235;28;20046;-88
2022/12/20 04:30:16;;;;;;;7.63;3.60;;;9.50;99.90;;;;;;4972319;28;20063;-89
2022/12/20 04:32:42;;;;;;;6.88;3.58;;;9.50;99.90;;;;;;4958505;28;20051;-89
2022/12/20 04:35:12;;;;;;;7.53;3.72;;;9.50;99.90;;;;;;4975680;28;20042;-89
2022/12/20 04:37:40;;;;;;;8.02;3.92;;;9.50;99.90;;;;;;4976204;28;20039;-89
2022/12/20 04:40:07;;;;;;;7.55;3.67;;;9.50;99.90;;;;;;4958956;28;20403;-90
2022/12/20 04:42:33;;;;;;;6.40;3.40;;;9.50;99.90;;;;;;4958512;28;20368;-89
2022/12/20 04:45:01;;;;;;;7.07;3.55;;;9.50;99.90;;;;;;4958531;28;20056;-90
2022/12/20 04:47:28;;;;;;;6.65;3.83;;;9.50;99.90;;;;;;4958652;28;20058;-89
2022/12/20 04:50:00;;;;;;;8.40;3.70;;;9.50;99.90;;;;;;4958385;28;20503;-89
2022/12/20 04:55:09;;;;;;;8.27;3.80;;;9.50;99.90;;;;;;4997986;23;20105;-88
2022/12/20 04:57:35;;;;;;;8.25;3.78;;;9.50;99.90;;;;;;4977544;28;20058;-90
2022/12/20 05:00:01;;;;;;;7.20;3.65;;;9.50;99.90;;;;;;4977794;28;20105;-88
2022/12/20 05:02:27;;;;;;;7.82;3.80;;;9.60;99.90;;;;;;4989743;28;20449;-88
2022/12/20 05:04:52;;;;;;;8.10;3.85;;;9.60;99.90;;;;;;4995079;28;20034;-88
2022/12/20 05:07:18;;;;;;;7.30;3.70;;;9.60;99.90;;;;;;4973552;28;20086;-88
2022/12/20 05:09:43;;;;;;;9.38;3.92;;;9.60;99.90;;;;;;4970899;28;20101;-88
2022/12/20 05:12:09;;;;;;;6.68;3.40;;;9.60;99.90;;;;;;4976745;28;20121;-87
2022/12/20 05:14:35;;;;;;;8.63;3.95;;;9.60;99.90;;;;;;4977591;28;20053;-90
2022/12/20 05:17:00;;;;;;;7.00;3.40;;;9.60;99.90;;;;;;4993683;28;20771;-89
2022/12/20 05:19:29;;;;;;;7.72;3.90;;;9.60;99.90;;;;;;4995094;28;20054;-89
2022/12/20 05:27:41;;;;;;;7.25;3.63;;;9.70;99.90;;;;;;5001611;23;20561;-89
2022/12/20 05:30:09;;;;;;;7.68;3.40;;;9.70;99.90;;;;;;4976468;28;20221;-89
2022/12/20 05:32:55;;;;;;;6.72;3.35;;;9.70;99.90;;;;;;5002235;23;20035;-91
2022/12/20 05:35:49;;;;;;;6.60;3.22;;;9.70;99.90;;;;;;4955668;28;20062;-90
2022/12/20 05:38:14;;;;;;;8.30;3.50;;;9.70;99.90;;;;;;4956980;28;20051;-87
2022/12/20 05:40:40;;;;;;;10.75;3.25;;;9.80;99.90;;;;;;4957452;28;20093;-87
2022/12/20 05:43:06;;;;;;;8.07;3.35;;;9.80;99.90;;;;;;4975069;28;20046;-86
2022/12/20 05:45:32;;;;;;;7.47;3.45;;;9.90;99.90;;;;;;4957028;28;20047;-86
2022/12/20 05:47:58;;;;;;;9.63;3.72;;;9.90;99.90;;;;;;4974748;28;20066;-86
2022/12/20 05:50:23;;;;;;;8.15;3.13;;;9.90;99.90;;;;;;4957457;28;20102;-87
2022/12/20 05:52:49;;;;;;;6.28;3.25;;;9.90;99.90;;;;;;4956693;28;20053;-87
2022/12/20 05:55:15;;;;;;;8.75;3.15;;;9.90;99.90;;;;;;4957218;28;20495;-87
2022/12/20 05:57:41;;;;;;;7.80;3.28;;;9.90;99.90;;;;;;4958864;28;20375;-87
2022/12/20 06:00:08;;;;;;;6.78;3.10;;;9.90;99.90;;;;;;4974420;28;20054;-86
2022/12/20 06:02:33;;;;;;;8.38;3.50;;;9.90;99.90;;;;;;4975073;28;20043;-87
2022/12/20 06:04:59;;;;;;;6.38;3.00;;;10.00;99.90;;;;;;4957515;28;20109;-87
2022/12/20 06:07:27;;;;;;;8.27;3.15;;;9.90;99.90;;;;;;4956159;28;20042;-87
2022/12/20 06:09:54;;;;;;;7.10;3.00;;;10.00;99.90;;;;;;4957590;28;20129;-87
2022/12/20 06:12:19;;;;;;;5.82;2.85;;;10.00;99.90;;;;;;4974387;28;20069;-86
2022/12/20 06:14:45;;;;;;;6.95;2.90;;;10.00;99.90;;;;;;4974643;28;20402;-88
2022/12/20 06:17:11;;;;;;;8.38;3.20;;;10.00;99.90;;;;;;4957153;28;20158;-87
2022/12/20 06:19:40;;;;;;;5.47;2.95;;;10.00;99.90;;;;;;4956660;28;20058;-86
2022/12/20 06:22:07;;;;;;;7.75;3.10;;;10.00;99.90;;;;;;4957516;28;20046;-87
2022/12/20 06:24:38;;;;;;;5.70;2.92;;;10.00;99.90;;;;;;4975030;28;20046;-87
2022/12/20 06:27:05;;;;;;;8.18;3.28;;;10.10;99.90;;;;;;4956554;28;20099;-86
2022/12/20 06:29:31;;;;;;;8.45;3.28;;;10.10;99.90;;;;;;4974337;28;20039;-87
2022/12/20 06:31:58;;;;;;;7.13;2.72;;;10.10;99.90;;;;;;4974589;28;20047;-87
2022/12/20 06:34:23;;;;;;;6.22;2.95;;;10.20;99.90;;;;;;4956400;28;20054;-87
2022/12/20 06:36:49;;;;;;;6.97;3.42;;;10.10;99.90;;;;;;4956837;28;20443;-87
2022/12/20 06:39:15;;;;;;;6.85;3.25;;;10.20;99.90;;;;;;4974007;28;20042;-87
2022/12/20 06:41:40;;;;;;;5.43;3.40;;;10.20;99.90;;;;;;4973704;28;20402;-86
2022/12/20 06:44:06;;;;;;;6.72;3.40;;;10.20;99.90;;;;;;4957739;28;20043;-87
2022/12/20 06:46:33;;;;;;;6.00;3.40;;;10.20;99.90;;;;;;4974470;28;20046;-87
2022/12/20 06:48:58;;;;;;;6.05;3.60;;;10.20;99.90;;;;;;4957181;28;20082;-87
2022/12/20 06:51:24;;;;;;;9.82;3.90;;;10.20;99.90;;;;;;4957599;28;20085;-87
2022/12/20 06:53:50;;;;;;;7.78;3.50;;;10.20;99.90;;;;;;4957673;28;20050;-88
2022/12/20 06:56:16;;;;;;;7.88;4.07;;;10.20;99.90;;;;;;4973135;28;20038;-87
2022/12/20 06:58:41;;;;;;;7.82;4.18;;;10.20;99.90;;;;;;4956807;28;20098;-87
2022/12/20 07:01:07;;;;;;;7.88;4.35;;;10.20;99.90;;;;;;4974120;28;20039;-88
2022/12/20 07:03:33;;;;;;;7.78;4.45;;;10.10;99.90;;;;;;4955642;28;20050;-87
2022/12/20 07:05:59;;;;;;;7.07;3.65;;;10.10;99.90;;;;;;4956913;28;20051;-87
2022/12/20 07:08:25;;;;;;;13.63;4.32;;;10.20;99.90;;;;;;4956439;28;20134;-86
2022/12/20 07:10:53;;;;;;;8.13;4.63;;;10.10;99.90;;;;;;4956552;28;20079;-87
2022/12/20 07:13:19;;;;;;;9.15;4.63;;;10.10;99.90;;;;;;4956480;28;20143;-87
2022/12/20 07:15:45;;;;;;;7.75;4.72;;;10.10;99.90;;;;;;4973080;28;20068;-86
2022/12/20 07:18:11;;;;;;;8.70;4.75;;;10.10;99.90;;;;;;4973897;28;20047;-87
2022/12/20 07:20:36;;;;;;;9.80;5.18;;;10.10;99.90;;;;;;4973953;28;20099;-87
2022/12/20 07:23:02;;;;;;;8.48;5.00;;;10.10;99.90;;;;;;4973793;28;20050;-88
2022/12/20 07:25:28;;;;;;;9.23;4.80;;;10.10;99.90;;;;;;4958926;28;20043;-87
2022/12/20 07:27:54;;;;;;;9.52;5.28;;;10.10;99.90;;;;;;4960518;28;20117;-87
2022/12/20 07:30:22;;;;;;;12.55;7.22;;;10.10;99.90;;;;;;4959827;28;20475;-87
2022/12/20 07:32:48;;;;;;;11.98;6.57;;;10.10;99.90;;;;;;4959946;28;20047;-86
2022/12/20 07:35:15;;;;;;;12.27;5.80;;;10.10;99.90;;;;;;4976906;28;20521;-87
2022/12/20 07:37:41;;;;;;;7.55;5.03;;;10.10;99.90;;;;;;4977776;28;20050;-87
2022/12/20 07:40:08;;;;;;;8.98;5.07;;;10.20;99.90;;;;;;4960427;28;20066;-87
2022/12/20 07:42:33;;;;;;;8.60;5.03;;;10.20;99.90;;;;;;4959605;28;20047;-86
2022/12/20 07:44:59;;;;;;;8.73;5.18;;;10.20;99.90;;;;;;4958988;28;20046;-87
2022/12/20 07:47:25;;;;;;;8.73;5.20;;;10.20;99.90;;;;;;4960658;28;20129;-88
2022/12/20 07:49:51;;;;;;;9.73;5.05;;;10.20;99.90;;;;;;4960076;28;20046;-87
2022/12/20 07:52:20;;;;;;;8.35;4.78;;;10.20;99.90;;;;;;4959045;28;20045;-87
2022/12/20 07:54:53;;;;;;;10.13;5.00;;;10.20;99.90;;;;;;4959812;28;20046;-87
2022/12/20 07:57:26;;;;;;;8.60;5.10;;;10.20;99.90;;;;;;4960005;28;20054;-88
2022/12/20 07:59:55;;;;;;;9.05;4.82;;;10.20;99.90;;;;;;4959708;28;20120;-87
2022/12/20 08:02:44;;;;;;;7.57;4.53;;;10.20;99.90;;;;;;4959126;28;20494;-87
2022/12/20 08:05:10;;;;;;;8.45;4.30;;;10.20;99.90;;;;;;4957259;28;20133;-88
2022/12/20 08:07:38;;;;;;;8.80;4.40;;;10.20;99.90;;;;;;4959625;28;20093;-86
2022/12/20 08:10:07;;;;;;;7.70;4.55;;;10.20;99.90;;;;;;4959875;28;20058;-86
2022/12/20 08:12:32;;;;;;;9.60;4.50;;;10.20;99.90;;;;;;4958919;28;20130;-88
2022/12/20 08:14:58;;;;;;;10.18;4.65;;;10.20;99.90;;;;;;4977091;28;20126;-88
2022/12/20 08:17:24;;;;;;;7.72;4.35;;;10.20;99.90;;;;;;4959733;28;20487;-88
2022/12/20 08:19:50;;;;;;;8.02;4.07;;;10.20;99.90;;;;;;4976315;28;20129;-88
2022/12/20 08:22:19;;;;;;;8.25;3.53;;;10.20;99.90;;;;;;4976435;28;20517;-89
2022/12/20 08:24:45;;;;;;;6.93;4.00;;;10.20;99.90;;;;;;4959590;28;20043;-88
2022/12/20 08:27:11;;;;;;;6.75;3.90;;;10.30;99.90;;;;;;4958230;28;20039;-88
2022/12/20 08:29:36;;;;;;;6.07;3.33;;;10.20;99.90;;;;;;4959937;28;20439;-89
2022/12/20 08:32:02;;;;;;;7.53;3.80;;;10.30;99.90;;;;;;4959383;28;20506;-88
2022/12/20 08:34:28;;;;;;;7.18;3.42;;;10.30;99.90;;;;;;4975280;28;20054;-87
2022/12/20 08:36:54;;;;;;;8.07;3.55;;;10.30;99.90;;;;;;4958363;28;20051;-89
2022/12/20 08:39:20;;;;;;;7.13;3.58;;;10.30;99.90;;;;;;4975746;28;20052;-88
2022/12/20 08:41:46;;;;;;;8.02;3.42;;;10.30;99.90;;;;;;4974512;28;20045;-87
2022/12/20 08:44:12;;;;;;;9.80;3.53;;;10.30;99.90;;;;;;4976200;28;20394;-87
2022/12/20 08:46:38;;;;;;;6.63;3.58;;;10.30;99.90;;;;;;4976453;28;20517;-87
2022/12/20 08:49:04;;;;;;;7.15;2.80;;;10.30;99.90;;;;;;4975258;28;20066;-87
2022/12/20 08:51:30;;;;;;;8.18;3.20;;;10.40;99.90;;;;;;4975901;28;20039;-87
2022/12/20 08:53:56;;;;;;;8.82;3.78;;;10.30;99.90;;;;;;4957914;28;20435;-86
2022/12/20 08:56:22;;;;;;;8.95;3.60;;;10.40;99.90;;;;;;4975573;28;20042;-87
2022/12/20 08:58:48;;;;;;;8.45;3.40;;;10.40;99.90;;;;;;4976458;28;20098;-87
2022/12/20 09:01:16;;;;;;;7.82;3.00;;;10.40;99.90;;;;;;4958187;28;20487;-87
2022/12/20 09:03:43;;;;;;;6.55;3.22;;;10.40;99.90;;;;;;4976181;28;20061;-86
2022/12/20 09:06:14;;;;;;;9.00;3.65;;;10.40;99.90;;;;;;4958308;28;20106;-87
2022/12/20 09:08:40;;;;;;;6.93;3.38;;;10.40;99.90;;;;;;4956754;28;20133;-88
2022/12/20 09:11:09;;;;;;;7.93;2.80;;;10.40;99.90;;;;;;4958267;28;20062;-87
2022/12/20 09:13:35;;;;;;;7.03;3.10;;;10.40;99.90;;;;;;4975490;28;20121;-88
2022/12/20 09:16:03;;;;;;;8.73;3.00;;;10.40;99.90;;;;;;4957532;28;20071;-88
2022/12/20 09:18:29;;;;;;;4.80;2.50;;;10.40;99.90;;;;;;4974323;28;20047;-88
2022/12/20 09:20:59;;;;;;;5.72;2.65;;;10.40;99.90;;;;;;4958171;28;20069;-88
2022/12/20 09:23:25;;;;;;;5.45;2.88;;;10.40;99.90;;;;;;4957504;28;20054;-88
2022/12/20 09:25:50;;;;;;;7.13;2.65;;;10.40;99.90;;;;;;4958804;28;20098;-87
2022/12/20 09:28:16;;;;;;;6.53;2.53;;;10.50;99.90;;;;;;4958347;28;20192;-88
2022/12/20 09:30:42;;;;;;;6.57;2.60;;;10.50;99.90;;;;;;4957704;28;20050;-87
2022/12/20 09:33:07;;;;;;;6.10;2.47;;;10.50;99.90;;;;;;4957611;28;20051;-87
2022/12/20 09:35:33;;;;;;;6.00;2.67;;;10.50;99.90;;;;;;4975451;28;20134;-88
2022/12/20 09:37:59;;;;;;;6.70;2.70;;;10.50;99.90;;;;;;4956769;28;20057;-88
2022/12/20 09:40:31;;;;;;;8.95;2.55;;;10.50;99.90;;;;;;4975360;28;20039;-87
2022/12/20 09:42:57;;;;;;;7.72;2.72;;;10.50;99.90;;;;;;4958027;28;20047;-88
2022/12/20 09:45:30;;;;;;;6.45;2.58;;;10.60;99.90;;;;;;4956867;28;20550;-86
2022/12/20 09:47:56;;;;;;;6.15;2.42;;;10.60;99.90;;;;;;4957322;28;20046;-87
2022/12/20 09:50:45;;;;;;;5.85;2.40;;;10.60;99.90;;;;;;4956912;28;20049;-86
2022/12/20 09:53:38;;;;;;;6.43;2.28;;;10.60;99.90;;;;;;4975151;28;20038;-87
2022/12/20 09:56:47;;;;;;;5.90;2.35;;;10.60;99.90;;;;;;4958060;28;20059;-86
2022/12/20 09:59:17;;;;;;;6.03;2.30;;;10.60;99.90;;;;;;4952851;28;20141;-86
2022/12/20 10:01:45;;;;;;;8.27;2.90;;;10.60;99.90;;;;;;4957726;28;20051;-86
2022/12/20 10:04:16;;;;;;;6.38;2.45;;;10.60;99.90;;;;;;4974233;28;20035;-89
2022/12/20 10:07:18;;;;;;;4.70;2.30;;;10.60;99.90;;;;;;4975160;28;20110;-86
2022/12/20 10:09:47;;;;;;;7.05;2.53;;;10.70;99.90;;;;;;4975218;28;20046;-86
2022/12/20 10:12:15;;;;;;;5.53;2.50;;;10.60;99.90;;;;;;4973830;28;20114;-86
2022/12/20 10:14:41;;;;;;;5.50;2.53;;;10.60;99.90;;;;;;4974985;28;20046;-86
2022/12/20 10:17:16;;;;;;;6.50;2.60;;;10.60;99.90;;;;;;4956909;28;20050;-87
2022/12/20 10:20:12;;;;;;;7.40;2.80;;;10.60;99.90;;;;;;4956607;28;20049;-87
2022/12/20 10:22:51;;;;;;;5.75;2.47;;;10.60;99.90;;;;;;4974243;28;20055;-87
2022/12/20 10:25:30;;;;;;;10.68;6.15;;;10.60;99.90;;;;;;4974676;28;20129;-86
2022/12/20 10:27:59;;;;;;;6.82;2.90;;;10.60;99.90;;;;;;4974848;28;20054;-86
2022/12/20 10:30:26;;;;;;;7.15;2.70;;;10.60;99.90;;;;;;4974529;28;20055;-86
2022/12/20 10:32:55;;;;;;;7.38;2.70;;;10.60;99.90;;;;;;4973403;28;20050;-86
2022/12/20 10:35:25;;;;;;;8.13;2.95;;;10.60;99.90;;;;;;4973952;28;20062;-85
2022/12/20 10:38:03;;;;;;;5.57;2.78;;;10.60;99.90;;;;;;4974682;28;20432;-85
2022/12/20 10:40:38;;;;;;;6.72;2.78;;;10.60;99.90;;;;;;4960271;28;20486;-86
2022/12/20 10:43:05;;;;;;;7.32;3.20;;;10.60;99.90;;;;;;4957461;28;20376;-86
2022/12/20 10:45:38;;;;;;;11.02;2.70;;;10.50;99.90;;;;;;4955893;28;20439;-85
2022/12/20 10:48:21;;;;;;;8.27;2.88;;;10.60;99.90;;;;;;4973827;28;20038;-85
2022/12/20 10:51:02;;;;;;;6.25;2.85;;;10.50;99.90;;;;;;4974393;28;20043;-85
2022/12/20 10:53:29;;;;;;;5.95;2.60;;;10.60;99.90;;;;;;4974235;28;20043;-85
2022/12/20 10:56:28;;;;;;;8.40;2.92;;;10.50;99.90;;;;;;4974014;28;20039;-87
2022/12/20 10:59:14;;;;;;;8.80;3.08;;;10.50;99.90;;;;;;4974054;28;20043;-86
2022/12/20 11:01:43;;;;;;;7.00;2.63;;;10.50;99.90;;;;;;4947430;28;20058;-87
2022/12/20 11:04:35;;;;;;;5.85;2.60;;;10.50;99.90;;;;;;4978268;28;20051;-87
2022/12/20 11:07:03;;;;;;;7.38;2.50;;;10.50;99.90;;;;;;4973814;28;20053;-85
2022/12/20 11:09:31;;;;;;;5.88;2.55;;;10.50;99.90;;;;;;4977276;28;20118;-86
2022/12/20 11:12:12;;;;;;;6.63;2.67;;;10.50;99.90;;;;;;4977807;28;20391;-85
2022/12/20 11:14:40;;;;;;;6.43;2.70;;;10.50;99.90;;;;;;4959993;28;20047;-86
2022/12/20 11:17:37;;;;;;;6.93;3.10;;;10.50;99.90;;;;;;4977706;28;20047;-85
2022/12/20 11:20:12;;;;;;;5.82;2.72;;;10.50;99.90;;;;;;4977940;28;20086;-86
2022/12/20 11:22:59;;;;;;;7.18;3.20;;;10.50;99.90;;;;;;4977146;28;20089;-84
2022/12/20 11:25:31;;;;;;;7.10;2.85;;;10.50;99.90;;;;;;4977780;28;20439;-86
2022/12/20 11:27:56;;;;;;;9.35;2.90;;;10.60;99.90;;;;;;4976007;28;20050;-85
2022/12/20 11:30:56;;;;;;;7.60;2.70;;;10.60;99.90;;;;;;4976124;28;20494;-84
2022/12/20 11:33:33;;;;;;;7.68;3.00;;;10.50;99.90;;;;;;4930326;28;20062;-84
2022/12/20 11:36:05;;;;;;;6.22;2.72;;;10.60;99.90;;;;;;4972789;28;20051;-86
2022/12/20 11:38:30;;;;;;;7.97;2.65;;;10.60;99.90;;;;;;4958191;28;20051;-84
2022/12/20 11:41:33;;;;;;;6.25;2.75;;;10.60;99.90;;;;;;4977012;28;20402;-85
2022/12/20 11:44:37;;;;;;;6.53;2.65;;;10.60;99.90;;;;;;4976454;28;20042;-85
2022/12/20 11:47:36;;;;;;;6.45;2.70;;;10.60;99.90;;;;;;4944467;28;20182;-85
2022/12/20 11:50:16;;;;;;;6.10;2.67;;;10.60;99.90;;;;;;4975352;28;20100;-86
2022/12/20 11:52:52;;;;;;;8.48;2.25;;;10.60;99.90;;;;;;4959345;28;20100;-86
2022/12/20 11:55:24;;;;;;;4.57;2.40;;;10.60;99.90;;;;;;4975057;28;20043;-86
2022/12/20 11:58:00;;;;;;;7.70;2.42;;;10.60;99.90;;;;;;4976185;28;20125;-86
2022/12/20 12:00:27;;;;;;;6.18;2.65;;;10.60;99.90;;;;;;4976616;28;20509;-86
2022/12/20 12:03:09;;;;;;;7.70;2.75;;;10.60;99.90;;;;;;4976680;28;20118;-86
2022/12/20 12:05:47;;;;;;;7.30;2.47;;;10.60;99.90;;;;;;4959059;28;20066;-86
2022/12/20 12:08:46;;;;;;;6.97;3.53;;;10.60;99.90;;;;;;4974347;28;20050;-87
2022/12/20 12:11:25;;;;;;;13.57;6.05;;;10.60;99.90;;;;;;4965511;28;20132;-86
2022/12/20 12:13:52;;;;;;;15.52;8.75;;;10.60;99.90;;;;;;4959867;28;20399;-86
2022/12/20 12:16:24;;;;;;;9.38;3.15;;;10.60;99.90;;;;;;4976576;28;20129;-86
2022/12/20 12:18:50;;;;;;;9.63;3.20;;;10.70;99.90;;;;;;4975313;28;20055;-86
2022/12/20 12:21:23;;;;;;;6.55;3.20;;;10.60;99.90;;;;;;4974015;28;20035;-85
2022/12/20 12:24:08;;;;;;;9.57;3.33;;;10.70;99.90;;;;;;4962625;28;20043;-85
2022/12/20 12:26:37;;;;;;;9.02;3.75;;;10.60;99.90;;;;;;4975925;28;20102;-87
2022/12/20 12:29:10;;;;;;;7.95;3.28;;;10.60;99.90;;;;;;4976580;28;20039;-87
2022/12/20 12:31:51;;;;;;;7.88;3.40;;;10.60;99.90;;;;;;4976603;28;20049;-87
2022/12/20 12:34:39;;;;;;;7.18;3.50;;;10.60;99.90;;;;;;4957821;28;20090;-86
2022/12/20 12:37:38;;;;;;;8.63;3.92;;;10.60;99.90;;;;;;4976246;28;20045;-86
2022/12/20 12:40:26;;;;;;;5.82;3.83;;;10.60;99.90;;;;;;4958046;28;20049;-86
2022/12/20 12:43:13;;;;;;;6.82;3.47;;;10.60;99.90;;;;;;4973955;28;20054;-87
2022/12/20 12:45:43;;;;;;;8.38;3.67;;;10.60;99.90;;;;;;4973748;28;20070;-86
2022/12/20 12:48:29;;;;;;;7.53;3.40;;;10.60;99.90;;;;;;4956625;28;20051;-87
2022/12/20 12:50:57;;;;;;;8.27;3.40;;;10.60;99.90;;;;;;4975131;28;20090;-85
2022/12/20 12:53:55;;;;;;;7.78;3.67;;;10.60;99.90;;;;;;4975086;28;20658;-85
2022/12/20 12:56:26;;;;;;;8.23;3.47;;;10.60;99.90;;;;;;4916601;28;20532;-84
2022/12/20 12:59:04;;;;;;;8.13;3.78;;;10.50;99.90;;;;;;4975993;28;20093;-85
2022/12/20 13:01:48;;;;;;;6.10;3.40;;;10.50;99.90;;;;;;4958698;28;20097;-84
2022/12/20 13:04:20;;;;;;;;;;;10.60;99.90;;;;;;4975957;28;20389;-86
2022/12/20 13:06:55;;;;;;;8.55;3.70;;;10.50;99.90;;;;;;4958033;28;20370;-86
2022/12/20 13:09:26;;;;;;;7.38;3.20;;;10.50;99.90;;;;;;4974514;28;20445;-86
2022/12/20 13:11:56;;;;;;;6.15;3.55;;;10.50;99.90;;;;;;4958006;28;20049;-86
2022/12/20 13:14:26;;;;;;;7.85;3.97;;;10.50;99.90;;;;;;4974579;28;20435;-86
2022/12/20 13:17:13;;;;;;;9.70;4.78;;;10.60;99.90;;;;;;4958433;28;20046;-87
2022/12/20 13:19:47;;;;;;;9.80;4.32;;;10.50;99.90;;;;;;4976407;28;20140;-86
2022/12/20 13:22:15;;;;;;;6.97;4.05;;;10.50;99.90;;;;;;4974400;28;20053;-86
2022/12/20 13:25:23;;;;;;;6.65;3.95;;;10.60;99.90;;;;;;4975907;28;20046;-86
2022/12/20 13:27:48;;;;;;;7.53;3.88;;;10.50;99.90;;;;;;4975392;28;20086;-86
2022/12/20 13:30:16;;;;;;;8.07;4.07;;;10.60;99.90;;;;;;4974614;28;20100;-85
2022/12/20 13:32:47;;;;;;;10.35;4.50;;;10.60;99.90;;;;;;4959088;28;20360;-86